Varnadiep — PBIB — position and weather

sailwx.info

Track history (hours):
 
Tides and Currents Weather Stations Pressure Air Temp Water Temp Dewpoint Dewpoint Depression Visibility Wind Speed Wind Dir Waves Ship Positions

Varnadiep

Last reported at 2015-Aug-28 01:34 UTC. Time now 2015-Aug-30 07:54 UTC.
Position N 57°19' E 017°42'.

Length 118 m; draft 6.7 m.

Type: Cargo ship. MMSI: 244729000.

Date/timePositionNaut miles runAvg speedWind from/ knotsBaromVisibWave heightAir tempDewpointWater temp
2015-Aug-28 01:34N 57°19' E 017°42'1111.5
2015-Aug-28 00:34N 57°08' E 017°35'1111.3
2015-Aug-27 23:33N 56°58' E 017°28'9110.8
2015-Aug-27 15:07N 55°45' E 015°48'611.5
2015-Aug-27 14:33N 55°42' E 015°38'1211.6
2015-Aug-27 13:33N 55°36' E 015°20'1211.6
2015-Aug-27 12:34N 55°31' E 015°02'1211.6
2015-Aug-27 11:33N 55°25' E 014°44'1111.4
2015-Aug-27 10:33N 55°17' E 014°30'1211.5
2015-Aug-27 09:34N 55°08' E 014°17'1111.3
2015-Aug-27 08:33N 54°60' E 014°04'1111.3
2015-Aug-27 07:33N 54°56' E 013°45'1111.1
2015-Aug-27 06:33N 54°53' E 013°27'1111.4
2015-Aug-27 05:34N 54°49' E 013°08'1211.7
2015-Aug-27 04:34N 54°46' E 012°49'1111.3
2015-Aug-27 03:33N 54°39' E 012°33'1111.1
2015-Aug-27 02:34N 54°32' E 012°19'1010.2
2015-Aug-27 01:34N 54°24' E 012°07'1111.3
2015-Aug-27 00:34N 54°25' E 011°47'1111.2
2015-Aug-26 23:34N 54°29' E 011°30'1111.2
2015-Aug-26 22:34N 54°34' E 011°13'1110.8
2015-Aug-26 21:33N 54°35' E 010°54'1110.9
2015-Aug-26 20:34N 54°33' E 010°35'1111.1
2015-Aug-26 19:33N 54°29' E 010°18'9 9.0
2015-Aug-26 18:34N 54°22' E 010°09'1 0.5
2015-Aug-26 17:32N 54°22' E 010°08'0 0.0
2015-Aug-26 16:32N 54°22' E 010°08'0 0.0
2015-Aug-26 15:33N 54°22' E 010°08'6 6.4
2015-Aug-26 14:34N 54°20' E 009°57'8 8.0
2015-Aug-26 13:33N 54°20' E 009°43'8 7.9
2015-Aug-26 12:33N 54°13' E 009°36'8 8.4
2015-Aug-26 11:33N 54°09' E 009°23'6 6.4
2015-Aug-26 10:33N 54°03' E 009°18'7 7.2
2015-Aug-26 09:33N 53°57' E 009°14'4 4.3
2015-Aug-26 08:33N 53°54' E 009°09'4 4.1
2015-Aug-26 07:33N 53°52' E 009°03'1212.0
2015-Aug-26 06:33N 53°53' E 008°42'1312.6
2015-Aug-26 05:33N 53°59' E 008°24'1111.2
2015-Aug-26 04:33N 53°59' E 008°05'8 8.2
2015-Aug-26 03:33N 53°57' E 007°51'7 7.4
2015-Aug-26 02:33N 53°55' E 007°39'8 8.1
2015-Aug-26 01:34N 53°53' E 007°25'9 8.7
2015-Aug-26 00:32N 53°52' E 007°11'8 8.4
2015-Aug-25 23:33N 53°50' E 006°57'8 8.0
2015-Aug-25 22:32N 53°48' E 006°44'8 8.0
2015-Aug-25 21:33N 53°46' E 006°31'8 8.3
2015-Aug-25 20:33N 53°44' E 006°17'9 8.7
2015-Aug-25 19:33N 53°41' E 006°03'9 9.2
2015-Aug-25 18:33N 53°38' E 005°49'9 9.3
2015-Aug-25 17:33N 53°35' E 005°34'9 9.3
2015-Aug-25 16:33N 53°32' E 005°19'1010.4
2015-Aug-25 15:33N 53°29' E 005°02'1211.7
2015-Aug-25 14:33N 53°24' E 004°44'1211.5
2015-Aug-25 13:33N 53°14' E 004°35'1211.5
2015-Aug-25 12:33N 53°04' E 004°26'2611.6
2015-Aug-25 10:16N 52°42' E 004°01'8510.6
2015-Aug-25 02:18N 51°39' E 002°29'810.1
2015-Aug-25 01:34N 51°34' E 002°21'1110.7
2015-Aug-25 00:33N 51°25' E 002°10'1110.6
2015-Aug-24 23:34N 51°15' E 002°05'1111.4
2015-Aug-24 22:34N 51°10' E 001°49'1212.2
2015-Aug-24 21:33N 51°01' E 001°36'29211.2
2015-Aug-23 19:33N 48°55' W 005°13'1212.0
2015-Aug-23 18:34N 48°49' W 005°29'2311.7
2015-Aug-23 16:33N 48°30' W 005°49'1211.6
2015-Aug-23 15:33N 48°19' W 005°57'1111.5
2015-Aug-23 14:33N 48°10' W 006°06'1211.7
2015-Aug-23 13:33N 47°60' W 006°15'50912.1
2015-Aug-21 19:29N 39°55' W 009°51'3211.0
2015-Aug-21 16:33N 39°22' W 009°52'1110.8
2015-Aug-21 15:33N 39°12' W 009°52'1010.5
2015-Aug-21 14:33N 39°01' W 009°52'1110.7
2015-Aug-21 13:34N 38°51' W 009°52'1110.6
2015-Aug-21 12:33N 38°40' W 009°51'1110.8
2015-Aug-21 11:33N 38°30' W 009°48'1110.8
2015-Aug-21 10:34N 38°19' W 009°44'1111.1
2015-Aug-21 09:33N 38°08' W 009°40'1110.9
2015-Aug-21 08:33N 37°58' W 009°37'1110.8
2015-Aug-21 07:33N 37°47' W 009°34'1111.0
2015-Aug-21 06:33N 37°36' W 009°31'1111.0
2015-Aug-21 05:33N 37°26' W 009°28'1111.4
2015-Aug-21 04:33N 37°15' W 009°24'1211.8
2015-Aug-21 03:33N 37°03' W 009°21'1111.1
2015-Aug-21 02:33N 36°53' W 009°17'1110.8
2015-Aug-21 01:33N 36°45' W 009°08'1111.4
2015-Aug-21 00:33N 36°41' W 008°54'1111.5
2015-Aug-20 23:33N 36°37' W 008°41'1411.6
2015-Aug-20 22:21N 36°33' W 008°24'911.5
2015-Aug-20 21:34N 36°30' W 008°14'1111.4
2015-Aug-20 20:34N 36°27' W 008°00'25410.5
2015-Aug-19 20:29N 36°25' W 002°45'1211.3
2015-Aug-19 19:28N 36°25' W 002°30'1111.3
2015-Aug-19 18:30N 36°26' W 002°17'  
Track history (hours):
 
Tides and Currents Weather Stations Pressure Air Temp Water Temp Dewpoint Dewpoint Depression Visibility Wind Speed Wind Dir Waves Ship Positions

Varnadiep

Last reported at 2015-Aug-28 01:34 UTC. Time now 2015-Aug-30 07:54 UTC.
Position N 57°19' E 017°42'.

Length 118 m; draft 6.7 m.

Type: Cargo ship. MMSI: 244729000.

Date/timePositionNaut miles runAvg speedWind from/ knotsBaromVisibWave heightAir tempDewpointWater temp
2015-Aug-28 01:34N 57°19' E 017°42'1111.5
2015-Aug-28 00:34N 57°08' E 017°35'1111.3
2015-Aug-27 23:33N 56°58' E 017°28'9110.8
2015-Aug-27 15:07N 55°45' E 015°48'611.5
2015-Aug-27 14:33N 55°42' E 015°38'1211.6
2015-Aug-27 13:33N 55°36' E 015°20'1211.6
2015-Aug-27 12:34N 55°31' E 015°02'1211.6
2015-Aug-27 11:33N 55°25' E 014°44'1111.4
2015-Aug-27 10:33N 55°17' E 014°30'1211.5
2015-Aug-27 09:34N 55°08' E 014°17'1111.3
2015-Aug-27 08:33N 54°60' E 014°04'1111.3
2015-Aug-27 07:33N 54°56' E 013°45'1111.1
2015-Aug-27 06:33N 54°53' E 013°27'1111.4
2015-Aug-27 05:34N 54°49' E 013°08'1211.7
2015-Aug-27 04:34N 54°46' E 012°49'1111.3
2015-Aug-27 03:33N 54°39' E 012°33'1111.1
2015-Aug-27 02:34N 54°32' E 012°19'1010.2
2015-Aug-27 01:34N 54°24' E 012°07'1111.3
2015-Aug-27 00:34N 54°25' E 011°47'1111.2
2015-Aug-26 23:34N 54°29' E 011°30'1111.2
2015-Aug-26 22:34N 54°34' E 011°13'1110.8
2015-Aug-26 21:33N 54°35' E 010°54'1110.9
2015-Aug-26 20:34N 54°33' E 010°35'1111.1
2015-Aug-26 19:33N 54°29' E 010°18'9 9.0
2015-Aug-26 18:34N 54°22' E 010°09'1 0.5
2015-Aug-26 17:32N 54°22' E 010°08'0 0.0
2015-Aug-26 16:32N 54°22' E 010°08'0 0.0
2015-Aug-26 15:33N 54°22' E 010°08'6 6.4
2015-Aug-26 14:34N 54°20' E 009°57'8 8.0
2015-Aug-26 13:33N 54°20' E 009°43'8 7.9
2015-Aug-26 12:33N 54°13' E 009°36'8 8.4
2015-Aug-26 11:33N 54°09' E 009°23'6 6.4
2015-Aug-26 10:33N 54°03' E 009°18'7 7.2
2015-Aug-26 09:33N 53°57' E 009°14'4 4.3
2015-Aug-26 08:33N 53°54' E 009°09'4 4.1
2015-Aug-26 07:33N 53°52' E 009°03'1212.0
2015-Aug-26 06:33N 53°53' E 008°42'1312.6
2015-Aug-26 05:33N 53°59' E 008°24'1111.2
2015-Aug-26 04:33N 53°59' E 008°05'8 8.2
2015-Aug-26 03:33N 53°57' E 007°51'7 7.4
2015-Aug-26 02:33N 53°55' E 007°39'8 8.1
2015-Aug-26 01:34N 53°53' E 007°25'9 8.7
2015-Aug-26 00:32N 53°52' E 007°11'8 8.4
2015-Aug-25 23:33N 53°50' E 006°57'8 8.0
2015-Aug-25 22:32N 53°48' E 006°44'8 8.0
2015-Aug-25 21:33N 53°46' E 006°31'8 8.3
2015-Aug-25 20:33N 53°44' E 006°17'9 8.7
2015-Aug-25 19:33N 53°41' E 006°03'9 9.2
2015-Aug-25 18:33N 53°38' E 005°49'9 9.3
2015-Aug-25 17:33N 53°35' E 005°34'9 9.3
2015-Aug-25 16:33N 53°32' E 005°19'1010.4
2015-Aug-25 15:33N 53°29' E 005°02'1211.7
2015-Aug-25 14:33N 53°24' E 004°44'1211.5
2015-Aug-25 13:33N 53°14' E 004°35'1211.5
2015-Aug-25 12:33N 53°04' E 004°26'2611.6
2015-Aug-25 10:16N 52°42' E 004°01'8510.6
2015-Aug-25 02:18N 51°39' E 002°29'810.1
2015-Aug-25 01:34N 51°34' E 002°21'1110.7
2015-Aug-25 00:33N 51°25' E 002°10'1110.6
2015-Aug-24 23:34N 51°15' E 002°05'1111.4
2015-Aug-24 22:34N 51°10' E 001°49'1212.2
2015-Aug-24 21:33N 51°01' E 001°36'29211.2
2015-Aug-23 19:33N 48°55' W 005°13'1212.0
2015-Aug-23 18:34N 48°49' W 005°29'2311.7
2015-Aug-23 16:33N 48°30' W 005°49'1211.6
2015-Aug-23 15:33N 48°19' W 005°57'1111.5
2015-Aug-23 14:33N 48°10' W 006°06'1211.7
2015-Aug-23 13:33N 47°60' W 006°15'50912.1
2015-Aug-21 19:29N 39°55' W 009°51'3211.0
2015-Aug-21 16:33N 39°22' W 009°52'1110.8
2015-Aug-21 15:33N 39°12' W 009°52'1010.5
2015-Aug-21 14:33N 39°01' W 009°52'1110.7
2015-Aug-21 13:34N 38°51' W 009°52'1110.6
2015-Aug-21 12:33N 38°40' W 009°51'1110.8
2015-Aug-21 11:33N 38°30' W 009°48'1110.8
2015-Aug-21 10:34N 38°19' W 009°44'1111.1
2015-Aug-21 09:33N 38°08' W 009°40'1110.9
2015-Aug-21 08:33N 37°58' W 009°37'1110.8
2015-Aug-21 07:33N 37°47' W 009°34'1111.0
2015-Aug-21 06:33N 37°36' W 009°31'1111.0
2015-Aug-21 05:33N 37°26' W 009°28'1111.4
2015-Aug-21 04:33N 37°15' W 009°24'1211.8
2015-Aug-21 03:33N 37°03' W 009°21'1111.1
2015-Aug-21 02:33N 36°53' W 009°17'1110.8
2015-Aug-21 01:33N 36°45' W 009°08'1111.4
2015-Aug-21 00:33N 36°41' W 008°54'1111.5
2015-Aug-20 23:33N 36°37' W 008°41'1411.6
2015-Aug-20 22:21N 36°33' W 008°24'911.5
2015-Aug-20 21:34N 36°30' W 008°14'1111.4
2015-Aug-20 20:34N 36°27' W 008°00'25410.5
2015-Aug-19 20:29N 36°25' W 002°45'1211.3
2015-Aug-19 19:28N 36°25' W 002°30'1111.3
2015-Aug-19 18:30N 36°26' W 002°17'  

Dump ship's entire track history